Shinglehouse, Pennsylvania
Current Conditions -  °F | °C
As of 4:56 AM on Monday 20 Oct 2014 (Local Time) from KELZ Reporting Station
Scattered Clouds Scattered Clouds  
Wind Chill: 33°   Ceiling: Unl
Heat Index: 38°   Visibility: 10mi
Dew Point: 30°   Wind: 6mph
Humidity: 73%   Direction: 280°W
Pressure: 29.99"   Gusts: NA
Location:  41.96°N, 78.19°W
Report Text: KELZ 200856Z AUTO 28005KT 10SM SCT100 03/M01 A2999 RMK AO2 SLP169 T00331011 56008
Loading
Personal Weather Stations






























Interactive Weather Map
Tropical Storm Tracking
New forecast layout! Learn more

10-Day Weather Forecast

Advertisements
Track Severe Weather on mobile